Latest Coastal Weather Observations for Hamilton Island

IDQ60701

Issued at 7:05 pm EST Saturday 22 November 2014 (issued every 10 minutes, with the page automatically refreshed every 10 minutes)

About coastal observations | Map of coastal stations | Coastal observations for QLD | Marine services | Other Formats
Station Details ID: 033106 Name: HAMILTON ISLAND AIRPORT Lat: -20.37 Lon: 148.95 Height: 58.66 m
Data from the previous 72 hours. | See also: Recent months at Hamilton Island
Date/Time
EST
Temp

°C
Wind Pressure Rain
since 9am
mm
Weather Cloud Vis
km
Sea
Height
m
Swell
Dir
 
Speed
knots
Gust
knots
hPa Trend Height
m
Period
s
Dir
22/07:00pm 25.7 ENE 10 12 1013.9 - 0.0 - - 10 - - - -
22/06:30pm 25.9 ENE 9 15 1013.4 - 0.0 - - 10 - - - -
22/06:00pm 26.3 ENE 13 17 1012.6 - 0.0 - - 10 - - - -
22/05:30pm 26.7 E 11 14 1012.8 - 0.0 - - 10 - - - -
22/05:00pm 27.1 E 12 16 1012.6 - 0.0 - - 10 - - - -
22/04:30pm 27.5 ENE 13 17 1012.3 - 0.0 - - 10 - - - -
22/04:00pm 27.3 E 14 17 1012.3 - 0.0 - - 10 - - - -
22/03:30pm 27.6 E 14 17 1012.5 - 0.0 - - 10 - - - -
22/03:00pm 27.5 E 14 17 1012.4 - 0.0 - - 10 - - - -
22/02:30pm 27.2 E 14 16 1013.2 - 0.0 - - 10 - - - -
22/02:00pm 27.4 E 15 18 1013.7 - 0.0 - Partly cloudy 10 - - - -
22/01:30pm 27.7 E 15 17 1014.0 - 0.0 - Partly cloudy 10 - - - -
22/01:00pm 27.9 E 15 17 1014.3 - 0.0 - Partly cloudy 10 - - - -
22/12:30pm 27.8 E 14 17 1014.5 - 0.0 - Partly cloudy 10 - - - -
22/12:00pm 27.6 E 15 17 1014.6 - 0.0 - - 10 - - - -
22/11:30am 27.9 ESE 15 16 1015.3 - 0.0 - Cloudy 10 - - - -
22/11:00am 28.1 ESE 14 16 1015.6 - 0.0 - Partly cloudy 10 - - - -
22/10:30am 27.5 E 15 16 1015.8 - 0.0 - Partly cloudy 10 - - - -
22/10:00am 28.5 E 14 16 1015.7 - 0.0 - Cloudy 10 - - - -
22/09:44am 27.9 ESE 13 15 1015.7 - 0.0 - Cloudy 10 - - - -
22/09:30am 27.0 ESE 11 13 1015.7 - 0.0 - Partly cloudy 10 - - - -
22/09:00am 26.5 ESE 9 11 1015.6 - 0.0 - Cloudy 10 - - - -
22/08:39am 26.6 ESE 9 11 1016.0 - 0.0 - Partly cloudy 10 - - - -
22/08:30am 26.9 ESE 7 9 1015.9 - 0.0 - Cloudy 10 - - - -
22/08:00am 26.7 SE 5 7 1015.9 - 0.0 - Partly cloudy 10 - - - -
22/07:30am 26.9 ENE 4 5 1015.8 - 0.0 - Partly cloudy 10 - - - -
22/07:00am 26.5 NNE 5 8 1015.5 - 0.0 - Partly cloudy 10 - - - -
22/06:30am 26.0 NE 4 6 1015.1 - 0.0 - - 10 - - - -
22/06:00am 25.2 NNE 4 6 1014.5 - 0.0 - - 10 - - - -
22/05:30am 24.4 N 4 5 1014.4 - 0.0 - - 10 - - - -
22/05:00am 24.2 N 4 4 1013.9 - 0.0 - - 10 - - - -
22/04:30am 24.3 CALM 0 0 1013.9 - 0.0 - Partly cloudy 10 - - - -
22/04:00am 24.3 W 1 4 1013.6 - 0.0 - Partly cloudy 10 - - - -
22/03:30am 24.7 NNE 6 8 1013.1 - 0.0 - - 10 - - - -
22/03:00am 24.4 NE 6 8 1012.6 - 0.0 - - 10 - - - -
22/02:30am 24.4 NE 6 7 1013.2 - 0.0 - - 10 - - - -
22/02:00am 24.4 NE 6 9 1013.2 - 0.0 - - 10 - - - -
22/01:30am 24.8 N 6 7 1013.8 - 0.0 - - 10 - - - -
22/01:00am 24.5 NE 6 8 1014.1 - 0.0 - - 10 - - - -
22/12:30am 24.5 ENE 4 6 1014.3 - 0.0 - - 10 - - - -
22/12:00am 24.5 NE 4 5 1014.4 - 0.0 - - 10 - - - -
 
Date/Time
EST
Temp

°C
Wind Pressure Rain
since 9am
mm
Weather Cloud Vis
km
Sea
Height
m
Swell
Dir
 
Speed
knots
Gust
knots
hPa Trend Height
m
Period
s
Dir
21/11:30pm 24.7 NNE 6 8 1014.8 - 0.0 - Partly cloudy 10 - - - -
21/11:00pm 25.0 NNE 6 8 1015.0 - 0.0 - - 10 - - - -
21/10:30pm 24.9 NE 6 9 1015.2 - 0.0 - - 10 - - - -
21/10:05pm 24.9 NE 6 8 1015.1 - 0.0 - Partly cloudy 10 - - - -
21/10:00pm 24.9 NE 5 6 1015.2 - 0.0 - Partly cloudy 10 - - - -
21/09:49pm 25.0 NE 6 11 1015.3 - 0.0 - Partly cloudy 10 - - - -
21/09:30pm 25.0 NE 7 9 1015.0 - 0.0 - - 10 - - - -
21/09:00pm 25.2 NE 6 9 1014.5 - 0.0 - Mostly clear 10 - - - -
21/08:30pm 25.2 NNE 8 10 1014.3 - 0.0 - - 10 - - - -
21/08:00pm 25.3 NE 7 9 1014.1 - 0.0 - Partly cloudy 10 - - - -
21/07:30pm 25.4 NE 8 12 1013.8 - 0.0 - - 10 - - - -
21/07:00pm 25.4 NE 9 12 1013.4 - 0.0 - - 10 - - - -
21/06:30pm 25.7 NE 11 15 1013.0 - 0.0 - - 10 - - - -
21/06:00pm 26.1 NE 10 14 1012.4 - 0.0 - - 10 - - - -
21/05:30pm 26.3 NE 15 19 1012.6 - 0.0 - - 10 - - - -
21/05:00pm 26.7 NE 15 19 1012.4 - 0.0 - - 10 - - - -
21/04:30pm 27.6 NE 14 17 1012.2 - 0.0 - - 10 - - - -
21/04:00pm 28.1 NE 12 15 1012.5 - 0.0 - Partly cloudy 10 - - - -
21/03:30pm 27.8 ENE 13 17 1012.6 - 0.0 - Partly cloudy 10 - - - -
21/03:00pm 26.7 E 17 19 1012.5 - 0.0 - Cloudy 10 - - - -
21/02:30pm 26.6 E 16 18 1013.1 - 0.0 - Cloudy 10 - - - -
21/02:00pm 27.0 E 15 18 1013.4 - 0.0 - Partly cloudy 10 - - - -
21/01:30pm 27.6 E 14 18 1013.8 - 0.0 - Partly cloudy 10 - - - -
21/01:00pm 27.5 E 15 19 1014.3 - 0.0 - Partly cloudy 10 - - - -
21/12:30pm 26.8 ESE 14 16 1014.4 - 0.0 - Partly cloudy 10 - - - -
21/12:00pm 27.2 ESE 14 16 1014.5 - 0.0 - - 10 - - - -
21/11:30am 27.4 ESE 14 15 1015.1 - 0.0 - Partly cloudy 10 - - - -
21/11:00am 27.6 ESE 13 15 1015.4 - 0.0 - Partly cloudy 10 - - - -
21/10:30am 28.4 ESE 12 14 1015.7 - 0.0 - Cloudy 10 - - - -
21/10:00am 28.9 ESE 10 12 1016.2 - 0.0 - Partly cloudy 10 - - - -
21/09:30am 28.4 ESE 8 11 1016.5 - 0.0 - Partly cloudy 10 - - - -
21/09:00am 27.2 SE 6 8 1016.4 - 0.0 - Partly cloudy 10 - - - -
21/08:30am 26.3 SE 4 5 1016.7 - 0.0 - Partly cloudy 10 - - - -
21/08:00am 26.1 SSE 3 5 1016.6 - 0.0 - Partly cloudy 10 - - - -
21/07:30am 26.8 SE 5 6 1016.3 - 0.0 - Partly cloudy 10 - - - -
21/07:00am 27.4 ENE 7 9 1016.0 - 0.0 - Partly cloudy 10 - - - -
21/06:30am 26.0 N 1 4 1015.9 - 0.0 - Partly cloudy 10 - - - -
21/06:00am 25.4 NE 3 5 1015.0 - 0.0 - Cloudy 10 - - - -
21/05:30am 24.4 NNE 4 6 1014.9 - 0.0 - - 10 - - - -
21/05:00am 24.2 NE 6 8 1014.5 - 0.0 - - 10 - - - -
21/04:30am 24.6 NNE 7 9 1014.3 - 0.0 - - 10 - - - -
21/04:00am 24.4 ENE 7 9 1014.1 - 0.0 - Partly cloudy 10 - - - -
21/03:30am 24.5 ENE 8 11 1014.1 - 0.0 - Partly cloudy 10 - - - -
21/03:00am 24.6 NE 10 13 1013.5 - 0.0 - - 10 - - - -
21/02:30am 24.6 ENE 10 13 1013.9 - 0.0 - - 10 - - - -
21/02:00am 24.9 ENE 12 15 1014.1 - 0.0 - - 10 - - - -
21/01:30am 24.9 E 11 15 1014.2 - 0.0 - Partly cloudy 10 - - - -
21/01:00am 24.8 ENE 11 13 1014.6 - 0.0 - - 10 - - - -
21/12:30am 24.9 ENE 11 13 1015.0 - 0.0 - - 10 - - - -
21/12:00am 24.9 ENE 10 12 1015.1 - 0.0 - - 10 - - - -
 
Date/Time
EST
Temp

°C
Wind Pressure Rain
since 9am
mm
Weather Cloud Vis
km
Sea
Height
m
Swell
Dir
 
Speed
knots
Gust
knots
hPa Trend Height
m
Period
s
Dir
20/11:30pm 24.9 ENE 10 13 1015.7 - 0.0 - Partly cloudy 10 - - - -
20/11:00pm 25.0 ENE 10 12 1016.0 - 0.0 - - 10 - - - -
20/10:30pm 25.1 ENE 9 11 1016.0 - 0.0 - - 10 - - - -
20/10:00pm 25.2 ENE 10 13 1016.2 - 0.0 - - 10 - - - -
20/09:30pm 25.3 NE 8 11 1016.3 - 0.0 - - 10 - - - -
20/09:00pm 25.3 ENE 8 11 1015.8 - 0.0 - - 10 - - - -
20/08:30pm 25.3 NE 8 10 1015.9 - 0.0 - Partly cloudy 10 - - - -
20/08:00pm 25.3 NE 8 12 1015.4 - 0.0 - - 10 - - - -
20/07:30pm 25.4 NNE 8 10 1015.1 - 0.0 - - 10 - - - -
20/07:00pm 25.6 NNE 11 15 1014.5 - 0.0 - - 10 - - - -
20/06:30pm 25.8 NNE 9 14 1014.2 - 0.0 - - 10 - - - -
20/06:00pm 26.5 NE 10 13 1013.2 - 0.0 - - 10 - - - -
20/05:30pm 26.8 NE 13 17 1013.3 - 0.0 - - 10 - - - -
20/05:00pm 27.0 ENE 16 19 1012.9 - 0.0 - - 10 - - - -
20/04:30pm 27.8 ENE 16 19 1012.6 - 0.0 - - 10 - - - -
20/04:00pm 28.5 ENE 16 18 1012.6 - 0.0 - - 10 - - - -
20/03:30pm 29.7 NNW 8 15 1012.9 - 0.0 - Partly cloudy 10 - - - -
20/03:00pm 29.6 NW 10 12 1012.8 - 0.0 - Partly cloudy 10 - - - -
20/02:30pm 30.2 ENE 8 13 1013.5 - 0.0 - Partly cloudy 10 - - - -
20/02:00pm 29.4 NNW 9 11 1013.7 - 0.0 - Cloudy 10 - - - -
20/01:30pm 30.9 WNW 5 8 1014.0 - 0.0 - Partly cloudy 10 - - - -
20/01:00pm 29.5 W 8 9 1014.5 - 0.0 - Partly cloudy 10 - - - -
20/12:30pm 29.1 ESE 11 16 1014.9 - 0.0 - - 10 - - - -
20/12:00pm 27.4 E 13 15 1015.1 - 0.0 - - - - - - -
20/11:30am 29.1 ESE 11 14 1016.1 - 0.0 - - 10 - - - -
20/11:00am 28.8 E 13 17 1016.4 - 0.0 - Partly cloudy 10 - - - -
20/10:30am 30.3 ENE 9 13 1016.7 - 0.0 - Partly cloudy 10 - - - -
20/10:00am 29.4 ENE 8 10 1016.9 - 0.0 - - 10 - - - -
20/09:30am 27.9 E 14 16 1016.9 - 0.0 - - 10 - - - -
20/09:00am 28.6 E 12 17 1016.6 - 0.0 - - 10 - - - -
20/08:30am 29.0 E 8 13 1017.2 - 0.0 - - 10 - - - -
20/08:00am 27.8 E 11 15 1017.2 - 0.0 - Partly cloudy 10 - - - -
20/07:30am 27.5 ENE 13 16 1016.9 - 0.0 - - 10 - - - -
20/07:00am 25.9 ENE 13 17 1016.8 - 0.0 - Partly cloudy 10 - - - -
20/06:58am 25.7 ENE 13 15 1016.8 - 0.0 - Partly cloudy 10 - - - -
20/06:30am 25.7 E 8 11 1016.5 - 0.0 - Partly cloudy 10 - - - -
20/06:21am 25.5 ENE 7 9 1016.4 - 0.0 - Partly cloudy 10 - - - -
20/06:16am 25.4 ENE 8 9 1016.3 - 0.0 - Partly cloudy 10 - - - -
20/06:02am 25.2 ENE 8 9 1016.0 - 0.0 - Partly cloudy 10 - - - -
20/06:00am 25.1 ENE 8 9 1015.7 - 0.0 - Cloudy 10 - - - -
20/05:30am 24.6 NE 6 8 1015.7 - 0.0 - Partly cloudy 10 - - - -
20/05:00am 24.7 NE 10 14 1015.3 - 0.0 - Partly cloudy 10 - - - -
20/04:30am 24.6 ENE 8 10 1015.5 - 0.0 - - 10 - - - -
20/04:00am 24.7 ENE 7 9 1015.4 - 0.0 - - 10 - - - -
20/03:30am 24.9 ENE 9 11 1015.3 - 0.0 - Partly cloudy 10 - - - -
20/03:00am 25.0 ENE 13 16 1014.8 - 0.0 - Mostly clear 10 - - - -
20/02:30am 25.1 ENE 14 16 1015.1 - 0.0 - Partly cloudy 10 - - - -
20/02:16am 25.2 ENE 14 17 1015.2 - 0.0 - Partly cloudy 10 - - - -
20/02:00am 25.2 E 14 18 1015.1 - 0.0 - Partly cloudy 10 - - - -
20/01:36am 25.4 ENE 11 15 1015.1 - 0.0 - Partly cloudy 10 - - - -
20/01:30am 25.3 ENE 11 15 1015.1 - 0.0 - Partly cloudy 10 - - - -
20/01:10am 25.2 NE 10 13 1015.2 - 0.0 - Partly cloudy 10 - - - -
20/01:00am 25.3 NE 8 11 1015.2 - 0.0 - Partly cloudy 10 - - - -
20/12:30am 25.5 ENE 12 17 1015.6 - 0.0 - Partly cloudy 10 - - - -
20/12:19am 25.5 ENE 11 14 1015.5 - 0.0 - Partly cloudy 10 - - - -
20/12:00am 25.4 NNE 9 12 1015.2 - 0.0 - - 10 - - - -
 
Date/Time
EST
Temp

°C
Wind Pressure Rain
since 9am
mm
Weather Cloud Vis
km
Sea
Height
m
Swell
Dir
 
Speed
knots
Gust
knots
hPa Trend Height
m
Period
s
Dir
19/11:30pm 25.4 NNE 11 17 1015.2 - 0.0 - - 10 - - - -
19/11:00pm 25.3 NNE 8 11 1015.4 - 0.0 - - 10 - - - -
19/10:30pm 25.5 N 8 13 1015.3 - 0.0 - - 10 - - - -
19/10:00pm 25.6 N 10 14 1015.0 - 0.0 - - 10 - - - -
19/09:32pm 25.6 N 11 13 1015.0 - 0.0 - Partly cloudy 10 - - - -
19/09:30pm 25.6 N 10 13 1015.0 - 0.0 - Partly cloudy 10 - - - -
19/09:19pm 25.6 N 10 15 1014.9 - 0.0 - Partly cloudy 10 - - - -
19/09:00pm 25.6 N 9 13 1014.4 - 0.0 - Mostly clear 10 - - - -
19/08:30pm 25.8 N 9 12 1014.2 - 0.0 - Partly cloudy 10 - - - -
19/08:00pm 25.8 N 10 13 1014.1 - 0.0 - Partly cloudy 10 - - - -
19/07:30pm 26.0 N 9 13 1013.8 - 0.0 - Partly cloudy 10 - - - -

Other Formats:

Comma delimited format used in spreadsheet applications
http://www.bom.gov.au/fwo/IDQ60701/IDQ60701.94368.axf

JavaScript Object Notation format (JSON) in row-major order
http://www.bom.gov.au/fwo/IDQ60701/IDQ60701.94368.json